Terminal Aerodrome Forecast
Issued by NWS Central Illinois

Home | Current Version | Previous Version | Text Only | Print | Product List | Glossary On
Versions: 1 2 3 4 5 6 7 8 9 10 11 12 13 14 15 16 17 18 19 20 21
000
FTUS43 KILX 190734 AAA
TAFPIA
TAF AMD
KPIA 190734Z 1908/2006 31010KT P6SM VCSH OVC015
     FM191000 33010KT P6SM OVC015
     FM191400 35010KT P6SM SCT020=

USA.gov is the U.S. government's official web portal to all federal, state and local government web resources and services.